createdAt,value
2022-10-16T00:00:25.477Z,0
2022-10-16T00:01:20.592Z,0
2022-10-16T00:02:20.958Z,0
2022-10-16T00:03:20.598Z,0
2022-10-16T00:04:20.615Z,0
2022-10-16T00:05:20.583Z,0
2022-10-16T00:06:20.611Z,0
2022-10-16T00:07:20.587Z,0
2022-10-16T00:08:20.624Z,0
2022-10-16T00:09:20.601Z,0
2022-10-16T00:10:20.630Z,0
2022-10-16T00:11:23.622Z,0
2022-10-16T00:12:23.774Z,0
2022-10-16T00:13:20.607Z,0
2022-10-16T00:14:23.773Z,0
2022-10-16T00:15:20.632Z,0
2022-10-16T00:16:24.757Z,0
2022-10-16T00:17:20.619Z,0
2022-10-16T00:18:20.628Z,0
2022-10-16T00:19:20.611Z,0
2022-10-16T00:20:20.613Z,0
2022-10-16T00:21:20.607Z,0
2022-10-16T00:22:23.599Z,0
2022-10-16T00:23:20.629Z,0
2022-10-16T00:24:20.651Z,0
2022-10-16T00:25:20.612Z,0
2022-10-16T00:26:20.633Z,0
2022-10-16T00:27:20.646Z,0
2022-10-16T00:28:20.791Z,0
2022-10-16T00:29:20.613Z,0
2022-10-16T00:30:20.625Z,0
2022-10-16T00:31:20.617Z,0
2022-10-16T00:32:20.626Z,0
2022-10-16T00:33:22.247Z,0
2022-10-16T00:34:20.639Z,0
2022-10-16T00:35:20.641Z,0
2022-10-16T00:36:20.636Z,0
2022-10-16T00:37:20.681Z,0
2022-10-16T00:38:20.806Z,0
2022-10-16T00:39:20.646Z,0
2022-10-16T00:40:20.675Z,0
2022-10-16T00:41:20.649Z,0
2022-10-16T00:42:20.639Z,0
2022-10-16T00:43:20.727Z,0
2022-10-16T00:44:23.694Z,0
2022-10-16T00:45:20.670Z,0
2022-10-16T00:46:20.675Z,0
2022-10-16T00:47:20.655Z,0
2022-10-16T00:48:20.679Z,0
2022-10-16T00:49:23.569Z,0
2022-10-16T00:50:20.660Z,0
2022-10-16T00:51:20.654Z,0
2022-10-16T00:52:20.671Z,0
2022-10-16T00:53:20.863Z,0
2022-10-16T00:54:20.687Z,0
2022-10-16T00:55:23.667Z,0
2022-10-16T00:56:20.691Z,0
2022-10-16T00:57:21.709Z,0
2022-10-16T00:58:20.722Z,0
2022-10-16T00:59:20.729Z,0
2022-10-16T01:00:21.761Z,0
2022-10-16T01:01:20.963Z,0
2022-10-16T01:02:20.680Z,0
2022-10-16T01:03:20.704Z,0
2022-10-16T01:04:20.835Z,0
2022-10-16T01:05:20.718Z,0
2022-10-16T01:06:20.966Z,0
2022-10-16T01:07:20.702Z,0
2022-10-16T01:08:20.712Z,0
2022-10-16T01:09:20.759Z,0
2022-10-16T01:10:20.721Z,0
2022-10-16T01:11:20.687Z,0
2022-10-16T01:12:20.727Z,0
2022-10-16T01:13:20.716Z,0
2022-10-16T01:14:20.712Z,0
2022-10-16T01:15:20.717Z,0
2022-10-16T01:16:20.704Z,0
2022-10-16T01:17:20.704Z,0
2022-10-16T01:18:20.717Z,0
2022-10-16T01:19:20.713Z,0
2022-10-16T01:20:20.710Z,0
2022-10-16T01:21:20.745Z,0
2022-10-16T01:22:20.716Z,0
2022-10-16T01:23:20.738Z,0
2022-10-16T01:24:20.717Z,0
2022-10-16T01:25:20.711Z,0
2022-10-16T01:26:20.744Z,0
2022-10-16T01:27:23.830Z,0
2022-10-16T01:28:20.841Z,0
2022-10-16T01:29:20.715Z,0
2022-10-16T01:30:20.743Z,0
2022-10-16T01:31:20.759Z,0
2022-10-16T01:32:20.752Z,0
2022-10-16T01:33:20.755Z,0
2022-10-16T01:34:20.745Z,0
2022-10-16T01:35:20.741Z,0
2022-10-16T01:36:20.779Z,0
2022-10-16T01:37:20.757Z,0
2022-10-16T01:38:21.057Z,0
2022-10-16T01:39:20.760Z,0
2022-10-16T01:40:20.739Z,0
2022-10-16T01:41:20.810Z,0
2022-10-16T01:42:20.986Z,0
2022-10-16T01:43:23.799Z,0
2022-10-16T01:44:20.744Z,0
2022-10-16T01:45:20.778Z,0
2022-10-16T01:46:20.751Z,0
2022-10-16T01:47:20.796Z,0
2022-10-16T01:48:20.758Z,0
2022-10-16T01:49:23.884Z,0
2022-10-16T01:50:20.767Z,0
2022-10-16T01:51:20.774Z,0
2022-10-16T01:52:20.787Z,0
2022-10-16T01:53:20.804Z,0
2022-10-16T01:54:23.571Z,0
2022-10-16T01:55:20.783Z,0
2022-10-16T01:56:20.811Z,0
2022-10-16T01:57:20.809Z,0
2022-10-16T01:58:20.824Z,0
2022-10-16T01:59:20.805Z,0
2022-10-16T02:00:23.872Z,0
2022-10-16T02:01:20.875Z,0
2022-10-16T02:02:20.774Z,0
2022-10-16T02:03:20.818Z,0
2022-10-16T02:04:20.779Z,0
2022-10-16T02:05:23.714Z,0
2022-10-16T02:06:20.811Z,0
2022-10-16T02:07:20.785Z,0
2022-10-16T02:08:20.788Z,0
2022-10-16T02:09:20.842Z,0
2022-10-16T02:10:21.058Z,0
2022-10-16T02:11:23.818Z,0
2022-10-16T02:12:20.807Z,0
2022-10-16T02:13:20.801Z,0
2022-10-16T02:14:20.849Z,0
2022-10-16T02:15:20.830Z,0
2022-10-16T02:16:23.834Z,0
2022-10-16T02:17:20.811Z,0
2022-10-16T02:18:20.808Z,0
2022-10-16T02:19:20.864Z,0
2022-10-16T02:20:20.930Z,0
2022-10-16T02:21:20.824Z,0
2022-10-16T02:22:23.792Z,0
2022-10-16T02:23:20.823Z,0
2022-10-16T02:24:20.841Z,0
2022-10-16T02:25:20.869Z,0
2022-10-16T02:26:20.820Z,0
2022-10-16T02:27:23.669Z,0
2022-10-16T02:28:21.227Z,0
2022-10-16T02:29:20.873Z,0
2022-10-16T02:30:20.884Z,0
2022-10-16T02:31:20.879Z,0
2022-10-16T02:32:20.829Z,0
2022-10-16T02:33:23.875Z,0
2022-10-16T02:34:20.856Z,0
2022-10-16T02:35:20.856Z,0
2022-10-16T02:36:20.830Z,0
2022-10-16T02:37:20.847Z,0
2022-10-16T02:38:23.927Z,0
2022-10-16T02:39:20.882Z,0
2022-10-16T02:40:27.543Z,0
2022-10-16T02:41:20.879Z,0
2022-10-16T02:42:20.852Z,0
2022-10-16T02:43:20.873Z,0
2022-10-16T02:44:20.874Z,0
2022-10-16T02:45:20.868Z,0
2022-10-16T02:46:20.746Z,0
2022-10-16T02:47:20.899Z,0
2022-10-16T02:48:21.071Z,0
2022-10-16T02:49:23.930Z,0
2022-10-16T02:50:20.863Z,0
2022-10-16T02:51:20.885Z,0
2022-10-16T02:52:20.864Z,0
2022-10-16T02:53:20.873Z,0
2022-10-16T02:54:20.880Z,0
2022-10-16T02:55:20.912Z,0
2022-10-16T02:56:21.193Z,0
2022-10-16T02:57:20.905Z,0
2022-10-16T02:58:20.981Z,0
2022-10-16T02:59:20.911Z,0
2022-10-16T03:00:23.652Z,0
2022-10-16T03:01:21.198Z,0
2022-10-16T03:02:20.969Z,0
2022-10-16T03:03:20.911Z,0
2022-10-16T03:04:20.905Z,0
2022-10-16T03:06:20.903Z,0
2022-10-16T03:07:20.940Z,0
2022-10-16T03:08:20.906Z,0
2022-10-16T03:09:20.928Z,0
2022-10-16T03:10:20.912Z,0
2022-10-16T03:11:24.012Z,0
2022-10-16T03:12:20.921Z,0
2022-10-16T03:13:20.925Z,0
2022-10-16T03:14:21.427Z,0
2022-10-16T03:15:20.925Z,0
2022-10-16T03:16:23.710Z,0
2022-10-16T03:17:20.910Z,0
2022-10-16T03:18:20.976Z,0
2022-10-16T03:19:21.033Z,0
2022-10-16T03:20:20.930Z,0
2022-10-16T03:21:20.989Z,0
2022-10-16T03:22:23.762Z,0
2022-10-16T03:23:21.151Z,0
2022-10-16T03:24:21.074Z,0
2022-10-16T03:25:20.958Z,0
2022-10-16T03:26:20.947Z,0
2022-10-16T03:27:27.647Z,0
2022-10-16T03:28:21.012Z,0
2022-10-16T03:29:22.065Z,0
2022-10-16T03:30:20.955Z,0
2022-10-16T03:31:21.038Z,0
2022-10-16T03:32:20.957Z,0
2022-10-16T03:33:20.986Z,0
2022-10-16T03:34:21.037Z,0
2022-10-16T03:35:21.013Z,0
2022-10-16T03:36:21.031Z,0
2022-10-16T03:37:20.953Z,0
2022-10-16T03:38:21.001Z,0
2022-10-16T03:39:21.049Z,0
2022-10-16T03:40:20.954Z,0
2022-10-16T03:41:21.003Z,0
2022-10-16T03:42:20.959Z,0
2022-10-16T03:43:21.998Z,0
2022-10-16T03:44:21.073Z,0
2022-10-16T03:45:21.037Z,0
2022-10-16T03:46:20.998Z,0
2022-10-16T03:47:21.003Z,0
2022-10-16T03:48:20.990Z,0
2022-10-16T03:49:21.043Z,0
2022-10-16T03:50:21.035Z,0
2022-10-16T03:51:21.037Z,0
2022-10-16T03:52:21.119Z,0
2022-10-16T03:53:20.998Z,0
2022-10-16T03:54:23.882Z,0
2022-10-16T03:55:24.853Z,0
2022-10-16T03:56:21.032Z,0
2022-10-16T03:57:21.044Z,0
2022-10-16T03:58:21.095Z,0
2022-10-16T03:59:21.066Z,0
2022-10-16T04:00:21.020Z,0
2022-10-16T04:01:21.424Z,0
2022-10-16T04:02:21.038Z,0
2022-10-16T04:03:23.713Z,0
2022-10-16T04:04:21.044Z,0
2022-10-16T04:05:24.091Z,0
2022-10-16T04:06:21.041Z,0
2022-10-16T04:07:21.048Z,0
2022-10-16T04:08:21.013Z,0
2022-10-16T04:09:21.018Z,0
2022-10-16T04:10:24.128Z,0
2022-10-16T04:11:20.993Z,0
2022-10-16T04:12:21.032Z,0
2022-10-16T04:13:22.195Z,0
2022-10-16T04:14:21.054Z,0
2022-10-16T04:15:21.015Z,0
2022-10-16T04:16:28.577Z,0
2022-10-16T04:17:21.038Z,0
2022-10-16T04:18:21.043Z,0
2022-10-16T04:19:21.032Z,0
2022-10-16T04:20:21.041Z,0
2022-10-16T04:21:23.812Z,0
2022-10-16T04:22:21.299Z,0
2022-10-16T04:23:21.043Z,0
2022-10-16T04:24:21.077Z,0
2022-10-16T04:25:21.026Z,0
2022-10-16T04:26:21.083Z,0
2022-10-16T04:27:22.148Z,0
2022-10-16T04:28:21.269Z,0
2022-10-16T04:29:21.077Z,0
2022-10-16T04:30:21.250Z,0
2022-10-16T04:31:21.052Z,0
2022-10-16T04:32:24.200Z,0
2022-10-16T04:33:21.040Z,0
2022-10-16T04:34:21.099Z,0
2022-10-16T04:35:21.053Z,0
2022-10-16T04:36:22.370Z,0
2022-10-16T04:37:21.076Z,0
2022-10-16T04:38:24.127Z,0
2022-10-16T04:39:21.069Z,0
2022-10-16T04:40:21.086Z,0
2022-10-16T04:41:21.092Z,0
2022-10-16T04:42:21.147Z,0
2022-10-16T04:43:24.035Z,0
2022-10-16T04:44:21.092Z,0
2022-10-16T04:45:24.032Z,0
2022-10-16T04:46:21.178Z,0
2022-10-16T04:47:21.071Z,0
2022-10-16T04:48:21.130Z,0
2022-10-16T04:49:23.846Z,0
2022-10-16T04:50:21.085Z,0
2022-10-16T04:51:21.077Z,0
2022-10-16T04:52:21.111Z,0
2022-10-16T04:53:21.109Z,0
2022-10-16T04:54:22.931Z,0
2022-10-16T04:55:21.109Z,0
2022-10-16T04:56:21.122Z,0
2022-10-16T04:57:21.078Z,0
2022-10-16T04:58:21.127Z,0
2022-10-16T04:59:21.104Z,0
2022-10-16T05:00:21.189Z,0
2022-10-16T05:01:21.081Z,0
2022-10-16T05:02:21.180Z,0
2022-10-16T05:03:21.946Z,0
2022-10-16T05:04:21.166Z,0
2022-10-16T05:05:23.849Z,0
2022-10-16T05:06:21.112Z,0
2022-10-16T05:07:21.102Z,0
2022-10-16T05:08:27.038Z,0
2022-10-16T05:09:21.150Z,0
2022-10-16T05:10:21.145Z,0
2022-10-16T05:11:21.095Z,0
2022-10-16T05:12:21.158Z,0
2022-10-16T05:13:21.121Z,0
2022-10-16T05:14:21.269Z,0
2022-10-16T05:15:21.126Z,0
2022-10-16T05:16:23.934Z,0
2022-10-16T05:17:21.113Z,0
2022-10-16T05:18:21.144Z,0
2022-10-16T05:19:36.669Z,0
2022-10-16T05:20:21.117Z,0
2022-10-16T05:21:21.132Z,0
2022-10-16T05:22:21.130Z,0
2022-10-16T05:23:21.206Z,0
2022-10-16T05:24:21.151Z,4
2022-10-16T05:25:23.908Z,0
2022-10-16T05:26:21.151Z,4
2022-10-16T05:27:24.234Z,0
2022-10-16T05:28:21.231Z,4
2022-10-16T05:29:21.131Z,4
2022-10-16T05:30:21.174Z,4
2022-10-16T05:31:21.327Z,4
2022-10-16T05:32:21.537Z,4
2022-10-16T05:33:21.145Z,8
2022-10-16T05:34:21.157Z,4
2022-10-16T05:35:21.185Z,8
2022-10-16T05:36:21.299Z,8
2022-10-16T05:37:21.159Z,4
2022-10-16T05:38:22.272Z,8
2022-10-16T05:39:21.194Z,8
2022-10-16T05:40:21.193Z,8
2022-10-16T05:41:21.211Z,8
2022-10-16T05:42:21.169Z,8
2022-10-16T05:43:24.185Z,8
2022-10-16T05:44:21.237Z,12
2022-10-16T05:45:21.196Z,12
2022-10-16T05:46:21.246Z,12
2022-10-16T05:47:21.166Z,16
2022-10-16T05:48:21.190Z,12
2022-10-16T05:49:23.959Z,16
2022-10-16T05:50:21.197Z,12
2022-10-16T05:51:21.200Z,16
2022-10-16T05:52:21.194Z,16
2022-10-16T05:53:21.200Z,16
2022-10-16T05:54:23.954Z,16
2022-10-16T05:55:21.212Z,16
2022-10-16T05:56:21.186Z,20
2022-10-16T05:57:21.240Z,24
2022-10-16T05:58:21.220Z,24
2022-10-16T05:59:21.198Z,28
2022-10-16T06:00:21.429Z,32
2022-10-16T06:01:21.688Z,32
2022-10-16T06:02:21.215Z,40
2022-10-16T06:03:21.194Z,36
2022-10-16T06:04:21.468Z,40
2022-10-16T06:05:21.286Z,40
2022-10-16T06:06:24.126Z,36
2022-10-16T06:07:21.245Z,32
2022-10-16T06:08:21.212Z,32
2022-10-16T06:09:21.274Z,28
2022-10-16T06:10:21.221Z,32
2022-10-16T06:11:21.210Z,36
2022-10-16T06:12:21.237Z,36
2022-10-16T06:13:21.281Z,36
2022-10-16T06:14:21.208Z,44
2022-10-16T06:15:21.229Z,44
2022-10-16T06:16:21.212Z,40
2022-10-16T06:17:21.233Z,40
2022-10-16T06:18:21.247Z,40
2022-10-16T06:19:21.212Z,40
2022-10-16T06:20:21.595Z,40
2022-10-16T06:21:23.989Z,40
2022-10-16T06:22:21.242Z,40
2022-10-16T06:23:21.250Z,40
2022-10-16T06:24:21.246Z,44
2022-10-16T06:25:21.262Z,44
2022-10-16T06:26:21.113Z,48
2022-10-16T06:27:21.094Z,52
2022-10-16T06:28:21.346Z,56
2022-10-16T06:29:21.289Z,60
2022-10-16T06:30:21.281Z,68
2022-10-16T06:31:21.246Z,72
2022-10-16T06:32:24.320Z,80
2022-10-16T06:33:21.279Z,92
2022-10-16T06:34:21.289Z,100
2022-10-16T06:35:21.263Z,116
2022-10-16T06:36:21.403Z,140
2022-10-16T06:37:24.248Z,152
2022-10-16T06:38:21.267Z,216
2022-10-16T06:39:21.276Z,232
2022-10-16T06:40:21.275Z,196
2022-10-16T06:41:21.257Z,160
2022-10-16T06:42:21.259Z,112
2022-10-16T06:43:24.384Z,100
2022-10-16T06:44:21.273Z,92
2022-10-16T06:45:21.337Z,84
2022-10-16T06:46:21.263Z,80
2022-10-16T06:47:21.263Z,72
2022-10-16T06:48:24.165Z,68
2022-10-16T06:49:21.269Z,68
2022-10-16T06:50:21.316Z,68
2022-10-16T06:51:21.295Z,64
2022-10-16T06:52:21.298Z,64
2022-10-16T06:53:21.283Z,60
2022-10-16T06:54:24.061Z,60
2022-10-16T06:55:21.341Z,60
2022-10-16T06:56:21.310Z,56
2022-10-16T06:57:21.297Z,56
2022-10-16T06:58:21.368Z,56
2022-10-16T06:59:21.538Z,52
2022-10-16T07:01:21.299Z,52
2022-10-16T07:02:21.359Z,56
2022-10-16T07:03:21.305Z,52
2022-10-16T07:04:21.325Z,56
2022-10-16T07:05:24.327Z,56
2022-10-16T07:06:21.345Z,60
2022-10-16T07:07:21.305Z,56
2022-10-16T07:08:24.136Z,56
2022-10-16T07:09:21.433Z,56
2022-10-16T07:10:24.363Z,56
2022-10-16T07:11:21.309Z,60
2022-10-16T07:12:21.342Z,64
2022-10-16T07:13:21.171Z,68
2022-10-16T07:14:21.512Z,72
2022-10-16T07:15:21.329Z,76
2022-10-16T07:16:26.946Z,72
2022-10-16T07:17:21.324Z,76
2022-10-16T07:18:21.423Z,76
2022-10-16T07:19:21.353Z,80
2022-10-16T07:20:21.414Z,80
2022-10-16T07:21:24.191Z,80
2022-10-16T07:22:21.356Z,84
2022-10-16T07:23:21.328Z,84
2022-10-16T07:24:21.338Z,92
2022-10-16T07:25:21.346Z,92
2022-10-16T07:26:21.372Z,100
2022-10-16T07:27:21.350Z,100
2022-10-16T07:28:21.595Z,104
2022-10-16T07:29:21.369Z,108
2022-10-16T07:30:21.371Z,100
2022-10-16T07:31:21.348Z,96
2022-10-16T07:32:24.485Z,92
2022-10-16T07:33:21.347Z,88
2022-10-16T07:34:21.380Z,88
2022-10-16T07:35:21.369Z,84
2022-10-16T07:36:23.207Z,80
2022-10-16T07:37:21.356Z,80
2022-10-16T07:38:21.388Z,84
2022-10-16T07:39:21.361Z,92
2022-10-16T07:40:21.384Z,96
2022-10-16T07:41:21.426Z,104
2022-10-16T07:42:21.386Z,112
2022-10-16T07:43:24.396Z,116
2022-10-16T07:44:21.369Z,120
2022-10-16T07:45:21.383Z,132
2022-10-16T07:46:21.363Z,144
2022-10-16T07:47:21.379Z,160
2022-10-16T07:48:21.446Z,172
2022-10-16T07:49:21.368Z,184
2022-10-16T07:50:21.401Z,192
2022-10-16T07:51:21.380Z,200
2022-10-16T07:52:21.318Z,208
2022-10-16T07:53:24.874Z,204
2022-10-16T07:54:24.566Z,196
2022-10-16T07:55:21.431Z,188
2022-10-16T07:56:21.416Z,184
2022-10-16T07:57:21.387Z,176
2022-10-16T07:58:21.475Z,176
2022-10-16T07:59:21.398Z,172
2022-10-16T08:00:21.405Z,168
2022-10-16T08:01:21.815Z,160
2022-10-16T08:02:24.400Z,152
2022-10-16T08:03:21.397Z,152
2022-10-16T08:04:21.462Z,156
2022-10-16T08:05:24.569Z,148
2022-10-16T08:06:26.981Z,144
2022-10-16T08:07:21.401Z,140
2022-10-16T08:08:21.436Z,136
2022-10-16T08:09:21.557Z,128
2022-10-16T08:10:21.634Z,128
2022-10-16T08:11:21.425Z,128
2022-10-16T08:12:21.414Z,128
2022-10-16T08:13:21.417Z,128
2022-10-16T08:14:21.437Z,128
2022-10-16T08:15:21.443Z,132
2022-10-16T08:16:24.559Z,140
2022-10-16T08:17:21.289Z,140
2022-10-16T08:18:21.420Z,148
2022-10-16T08:19:21.659Z,156
2022-10-16T08:20:21.435Z,168
2022-10-16T08:21:27.962Z,188
2022-10-16T08:22:21.457Z,204
2022-10-16T08:23:21.440Z,224
2022-10-16T08:24:21.471Z,248
2022-10-16T08:25:21.455Z,268
2022-10-16T08:26:21.469Z,288
2022-10-16T08:27:21.439Z,308
2022-10-16T08:28:21.716Z,328
2022-10-16T08:29:21.439Z,352
2022-10-16T08:30:21.543Z,376
2022-10-16T08:31:21.568Z,416
2022-10-16T08:32:29.206Z,476
2022-10-16T08:33:21.446Z,484
2022-10-16T08:34:21.467Z,460
2022-10-16T08:35:21.477Z,720
2022-10-16T08:36:21.511Z,568
2022-10-16T08:37:21.460Z,660
2022-10-16T08:38:21.464Z,596
2022-10-16T08:39:21.468Z,592
2022-10-16T08:40:21.734Z,652
2022-10-16T08:41:21.476Z,924
2022-10-16T08:42:21.500Z,516
2022-10-16T08:43:21.473Z,512
2022-10-16T08:44:21.327Z,400
2022-10-16T08:45:21.490Z,408
2022-10-16T08:46:21.522Z,420
2022-10-16T08:47:21.660Z,440
2022-10-16T08:48:30.410Z,404
2022-10-16T08:49:21.472Z,372
2022-10-16T08:50:21.737Z,340
2022-10-16T08:51:21.488Z,328
2022-10-16T08:52:21.552Z,356
2022-10-16T08:53:21.522Z,444
2022-10-16T08:54:21.495Z,692
2022-10-16T08:55:21.511Z,724
2022-10-16T08:56:21.498Z,640
2022-10-16T08:57:28.904Z,584
2022-10-16T08:58:21.494Z,532
2022-10-16T08:59:24.531Z,528
2022-10-16T09:00:21.563Z,508
2022-10-16T09:01:22.052Z,496
2022-10-16T09:02:21.524Z,512
2022-10-16T09:03:21.531Z,532
2022-10-16T09:04:24.611Z,552
2022-10-16T09:05:21.548Z,536
2022-10-16T09:06:21.517Z,480
2022-10-16T09:07:21.521Z,460
2022-10-16T09:08:21.569Z,460
2022-10-16T09:09:21.561Z,448
2022-10-16T09:10:24.613Z,440
2022-10-16T09:11:21.532Z,440
2022-10-16T09:12:21.516Z,416
2022-10-16T09:13:21.557Z,392
2022-10-16T09:14:21.530Z,376
2022-10-16T09:15:25.202Z,380
2022-10-16T09:16:21.537Z,372
2022-10-16T09:17:21.545Z,376
2022-10-16T09:18:21.563Z,376
2022-10-16T09:19:21.535Z,368
2022-10-16T09:20:21.633Z,356
2022-10-16T09:21:24.404Z,344
2022-10-16T09:22:21.579Z,324
2022-10-16T09:23:21.575Z,308
2022-10-16T09:24:24.373Z,296
2022-10-16T09:25:21.567Z,292
2022-10-16T09:27:21.547Z,284
2022-10-16T09:28:21.695Z,272
2022-10-16T09:29:21.619Z,256
2022-10-16T09:30:21.730Z,232
2022-10-16T09:31:21.555Z,204
2022-10-16T09:32:24.718Z,192
2022-10-16T09:33:21.558Z,184
2022-10-16T09:34:24.629Z,180
2022-10-16T09:35:21.737Z,184
2022-10-16T09:36:24.354Z,188
2022-10-16T09:37:24.972Z,192
2022-10-16T09:38:21.558Z,204
2022-10-16T09:39:21.562Z,212
2022-10-16T09:40:21.693Z,228
2022-10-16T09:41:21.676Z,240
2022-10-16T09:42:21.578Z,248
2022-10-16T09:43:24.616Z,248
2022-10-16T09:44:21.591Z,244
2022-10-16T09:45:21.628Z,244
2022-10-16T09:46:21.627Z,248
2022-10-16T09:47:21.649Z,248
2022-10-16T09:48:22.676Z,244
2022-10-16T09:49:21.598Z,236
2022-10-16T09:50:21.710Z,224
2022-10-16T09:51:21.595Z,216
2022-10-16T09:52:21.760Z,208
2022-10-16T09:53:21.584Z,208
2022-10-16T09:54:24.601Z,200
2022-10-16T09:55:21.612Z,200
2022-10-16T09:56:21.658Z,200
2022-10-16T09:57:21.615Z,200
2022-10-16T09:58:21.596Z,204
2022-10-16T09:59:24.370Z,216
2022-10-16T10:00:21.725Z,232
2022-10-16T10:01:25.458Z,248
2022-10-16T10:02:21.606Z,260
2022-10-16T10:03:21.695Z,268
2022-10-16T10:04:21.641Z,284
2022-10-16T10:05:21.627Z,296
2022-10-16T10:06:21.638Z,316
2022-10-16T10:07:21.616Z,336
2022-10-16T10:08:21.632Z,356
2022-10-16T10:09:21.627Z,384
2022-10-16T10:10:24.490Z,396
2022-10-16T10:11:23.054Z,416
2022-10-16T10:12:26.206Z,432
2022-10-16T10:13:21.645Z,444
2022-10-16T10:14:21.649Z,452
2022-10-16T10:15:21.662Z,464
2022-10-16T10:16:21.631Z,488
2022-10-16T10:17:21.675Z,492
2022-10-16T10:18:21.642Z,496
2022-10-16T10:19:21.642Z,488
2022-10-16T10:20:21.715Z,480
2022-10-16T10:21:24.491Z,468
2022-10-16T10:22:21.679Z,460
2022-10-16T10:23:21.656Z,444
2022-10-16T10:24:21.650Z,428
2022-10-16T10:25:21.719Z,420
2022-10-16T10:26:21.648Z,420
2022-10-16T10:27:25.544Z,416
2022-10-16T10:28:21.897Z,420
2022-10-16T10:29:21.658Z,424
2022-10-16T10:30:24.038Z,424
2022-10-16T10:31:21.679Z,428
2022-10-16T10:32:24.680Z,420
2022-10-16T10:33:21.677Z,420
2022-10-16T10:34:21.672Z,412
2022-10-16T10:35:21.693Z,408
2022-10-16T10:36:21.671Z,396
2022-10-16T10:37:21.901Z,396
2022-10-16T10:38:21.699Z,396
2022-10-16T10:40:21.810Z,408
2022-10-16T10:41:21.700Z,400
2022-10-16T10:42:21.684Z,388
2022-10-16T10:43:24.707Z,384
2022-10-16T10:44:21.709Z,380
2022-10-16T10:45:21.720Z,376
2022-10-16T10:46:21.689Z,368
2022-10-16T10:47:21.696Z,356
2022-10-16T10:48:25.072Z,352
2022-10-16T10:49:21.706Z,356
2022-10-16T10:50:21.852Z,368
2022-10-16T10:51:21.689Z,392
2022-10-16T10:52:24.723Z,412
2022-10-16T10:53:21.715Z,416
2022-10-16T10:54:21.726Z,420
2022-10-16T10:55:21.743Z,440
2022-10-16T10:56:21.742Z,448
2022-10-16T10:57:21.715Z,440
2022-10-16T10:58:21.705Z,432
2022-10-16T10:59:21.746Z,432
2022-10-16T11:00:21.905Z,436
2022-10-16T11:01:21.915Z,428
2022-10-16T11:02:21.982Z,416
2022-10-16T11:03:21.857Z,412
2022-10-16T11:04:22.864Z,404
2022-10-16T11:05:21.762Z,404
2022-10-16T11:06:24.629Z,400
2022-10-16T11:07:21.730Z,400
2022-10-16T11:08:21.777Z,396
2022-10-16T11:09:21.720Z,392
2022-10-16T11:10:21.778Z,396
2022-10-16T11:11:21.735Z,396
2022-10-16T11:12:21.726Z,404
2022-10-16T11:13:21.744Z,412
2022-10-16T11:14:21.744Z,416
2022-10-16T11:15:24.827Z,424
2022-10-16T11:16:26.198Z,436
2022-10-16T11:17:21.751Z,444
2022-10-16T11:18:21.757Z,456
2022-10-16T11:19:21.745Z,472
2022-10-16T11:20:21.789Z,484
2022-10-16T11:21:21.785Z,492
2022-10-16T11:22:21.752Z,496
2022-10-16T11:23:21.763Z,508
2022-10-16T11:24:21.775Z,520
2022-10-16T11:25:22.101Z,520
2022-10-16T11:26:24.935Z,532
2022-10-16T11:27:21.756Z,532
2022-10-16T11:28:21.878Z,532
2022-10-16T11:29:21.965Z,528
2022-10-16T11:30:21.762Z,528
2022-10-16T11:31:23.308Z,520
2022-10-16T11:32:21.802Z,516
2022-10-16T11:33:21.777Z,536
2022-10-16T11:34:21.792Z,540
2022-10-16T11:35:21.776Z,564
2022-10-16T11:36:21.820Z,604
2022-10-16T11:37:21.987Z,648
2022-10-16T11:38:21.788Z,704
2022-10-16T11:39:21.793Z,752
2022-10-16T11:40:21.790Z,812
2022-10-16T11:41:21.808Z,872
2022-10-16T11:42:24.908Z,1028
2022-10-16T11:43:21.842Z,1008
2022-10-16T11:44:21.799Z,688
2022-10-16T11:45:21.820Z,620
2022-10-16T11:46:21.816Z,628
2022-10-16T11:48:04.545Z,656
2022-10-16T11:48:24.559Z,636
2022-10-16T11:49:21.829Z,616
2022-10-16T11:50:22.273Z,520
2022-10-16T11:51:21.827Z,520
2022-10-16T11:52:22.099Z,584
2022-10-16T11:53:24.729Z,556
2022-10-16T11:54:21.948Z,748
2022-10-16T11:55:21.808Z,592
2022-10-16T11:56:21.830Z,748
2022-10-16T11:57:21.804Z,792
2022-10-16T11:58:21.842Z,1040
2022-10-16T11:59:23.017Z,1008
2022-10-16T12:00:21.816Z,936
2022-10-16T12:01:22.176Z,924
2022-10-16T12:02:21.824Z,632
2022-10-16T12:03:22.217Z,748
2022-10-16T12:04:24.586Z,924
2022-10-16T12:05:21.828Z,916
2022-10-16T12:06:21.853Z,640
2022-10-16T12:07:21.833Z,900
2022-10-16T12:08:21.863Z,888
2022-10-16T12:09:24.914Z,856
2022-10-16T12:10:27.786Z,864
2022-10-16T12:11:22.100Z,832
2022-10-16T12:12:21.843Z,836
2022-10-16T12:13:21.862Z,832
2022-10-16T12:14:21.863Z,860
2022-10-16T12:16:01.927Z,848
2022-10-16T12:16:21.849Z,844
2022-10-16T12:17:21.850Z,832
2022-10-16T12:18:21.852Z,824
2022-10-16T12:19:22.005Z,840
2022-10-16T12:20:21.867Z,332
2022-10-16T12:21:24.730Z,296
2022-10-16T12:22:21.876Z,332
2022-10-16T12:23:21.865Z,452
2022-10-16T12:24:21.893Z,580
2022-10-16T12:25:21.881Z,632
2022-10-16T12:26:25.060Z,624
2022-10-16T12:27:22.202Z,732
2022-10-16T12:28:22.004Z,736
2022-10-16T12:29:21.889Z,740
2022-10-16T12:30:21.907Z,692
2022-10-16T12:31:21.930Z,760
2022-10-16T12:32:50.836Z,756
2022-10-16T12:33:21.873Z,616
2022-10-16T12:34:21.894Z,740
2022-10-16T12:35:24.685Z,684
2022-10-16T12:36:29.539Z,620
2022-10-16T12:37:30.920Z,464
2022-10-16T12:38:22.954Z,728
2022-10-16T12:39:21.924Z,728
2022-10-16T12:40:21.970Z,256
2022-10-16T12:41:21.968Z,240
2022-10-16T12:42:21.923Z,208
2022-10-16T12:43:31.341Z,212
2022-10-16T12:44:21.930Z,204
2022-10-16T12:45:21.924Z,208
2022-10-16T12:46:21.938Z,212
2022-10-16T12:47:22.081Z,220
2022-10-16T12:48:26.572Z,220
2022-10-16T12:49:21.913Z,228
2022-10-16T12:50:24.273Z,240
2022-10-16T12:51:21.961Z,252
2022-10-16T12:52:21.929Z,264
2022-10-16T12:53:21.914Z,272
2022-10-16T12:54:21.915Z,284
2022-10-16T12:55:21.929Z,296
2022-10-16T12:56:21.950Z,308
2022-10-16T12:57:21.992Z,324
2022-10-16T12:58:21.948Z,340
2022-10-16T12:59:24.772Z,356
2022-10-16T13:00:22.405Z,392
2022-10-16T13:01:22.031Z,384
2022-10-16T13:02:21.970Z,384
2022-10-16T13:03:21.932Z,408
2022-10-16T13:04:21.943Z,408
2022-10-16T13:05:21.928Z,440
2022-10-16T13:06:21.941Z,436
2022-10-16T13:07:21.985Z,428
2022-10-16T13:08:21.944Z,440
2022-10-16T13:09:21.946Z,460
2022-10-16T13:10:23.043Z,476
2022-10-16T13:11:21.963Z,440
2022-10-16T13:12:21.966Z,448
2022-10-16T13:13:21.948Z,516
2022-10-16T13:14:21.952Z,840
2022-10-16T13:15:24.809Z,668
2022-10-16T13:16:21.968Z,636
2022-10-16T13:17:21.988Z,748
2022-10-16T13:18:21.980Z,632
2022-10-16T13:19:22.094Z,928
2022-10-16T13:20:21.962Z,952
2022-10-16T13:21:21.968Z,888
2022-10-16T13:22:21.971Z,840
2022-10-16T13:23:22.039Z,428
2022-10-16T13:24:21.991Z,364
2022-10-16T13:25:21.984Z,400
2022-10-16T13:26:21.972Z,700
2022-10-16T13:27:21.987Z,760
2022-10-16T13:28:22.147Z,588
2022-10-16T13:29:22.001Z,376
2022-10-16T13:30:23.819Z,804
2022-10-16T13:31:22.033Z,620
2022-10-16T13:32:22.013Z,428
2022-10-16T13:33:21.992Z,332
2022-10-16T13:34:24.761Z,304
2022-10-16T13:35:22.022Z,260
2022-10-16T13:36:21.994Z,244
2022-10-16T13:37:22.020Z,252
2022-10-16T13:38:21.994Z,284
2022-10-16T13:39:22.076Z,256
2022-10-16T13:40:22.004Z,304
2022-10-16T13:41:22.002Z,496
2022-10-16T13:42:28.107Z,488
2022-10-16T13:43:22.014Z,588
2022-10-16T13:44:22.048Z,784
2022-10-16T13:45:22.027Z,708
2022-10-16T13:46:22.062Z,812
2022-10-16T13:47:22.042Z,724
2022-10-16T13:48:22.017Z,604
2022-10-16T13:49:22.032Z,688
2022-10-16T13:50:22.828Z,740
2022-10-16T13:52:22.057Z,720
2022-10-16T13:53:25.075Z,724
2022-10-16T13:54:22.029Z,760
2022-10-16T13:55:22.086Z,744
2022-10-16T13:56:22.065Z,728
2022-10-16T13:57:33.724Z,732
2022-10-16T13:58:25.137Z,728
2022-10-16T13:59:22.046Z,728
2022-10-16T14:00:22.073Z,740
2022-10-16T14:01:21.918Z,664
2022-10-16T14:02:22.525Z,724
2022-10-16T14:03:22.048Z,688
2022-10-16T14:04:22.056Z,736
2022-10-16T14:05:22.055Z,716
2022-10-16T14:06:22.080Z,608
2022-10-16T14:07:28.029Z,652
2022-10-16T14:08:22.052Z,636
2022-10-16T14:09:25.100Z,636
2022-10-16T14:10:22.061Z,688
2022-10-16T14:11:22.109Z,704
2022-10-16T14:12:27.056Z,716
2022-10-16T14:13:22.142Z,704
2022-10-16T14:14:22.077Z,628
2022-10-16T14:15:24.965Z,620
2022-10-16T14:16:22.204Z,688
2022-10-16T14:17:22.252Z,676
2022-10-16T14:18:22.297Z,672